Time;durP1;ratioP1;P1;durP2;ratioP2;P2;SDS_P1;SDS_P2;PMS_P1;PMS_P2;Temp;Humidity;BMP_temperature;BMP_pressure;BME280_temperature;BME280_humidity;BME280_pressure;Samples;Min_cycle;Max_cycle;Signal;HPM_P1;HPM_P2
2022/02/23 00:00:07;;;;;;;;;2.25;2.25;;;;;11.58;80.27;101894.66;5078317;28;45674;-84
2022/02/23 00:05:54;;;;;;;;;4.50;2.00;;;;;11.54;80.01;101905.41;5077114;28;45578;-85
2022/02/23 00:08:20;;;;;;;;;3.75;2.25;;;;;11.48;79.85;101906.59;5076285;28;47300;-85
2022/02/23 00:10:47;;;;;;;;;4.00;2.00;;;;;11.57;79.85;101918.34;5076122;28;45577;-84
2022/02/23 00:13:12;;;;;;;;;3.75;3.00;;;;;11.52;79.99;101910.72;5076009;28;45586;-85
2022/02/23 00:15:37;;;;;;;;;5.25;4.00;;;;;11.55;80.03;101915.81;5076088;28;45663;-85
2022/02/23 00:18:03;;;;;;;;;3.00;2.00;;;;;11.54;79.91;101905.41;5075395;28;45637;-87
2022/02/23 00:20:29;;;;;;;;;5.25;2.75;;;;;11.47;79.88;101904.88;5075987;28;45634;-86
2022/02/23 00:22:54;;;;;;;;;4.00;2.00;;;;;11.48;79.97;101910.97;5076376;28;45766;-86
2022/02/23 00:25:21;;;;;;;;;6.25;3.00;;;;;11.28;79.84;101891.06;5076295;28;45926;-85
2022/02/23 00:27:47;;;;;;;;;5.25;2.00;;;;;11.41;80.10;101914.84;5080005;28;45690;-83
2022/02/23 00:30:12;;;;;;;;;2.00;2.00;;;;;11.38;80.10;101917.66;5078427;28;45610;-85
2022/02/23 00:35:59;;;;;;;;;3.50;3.00;;;;;11.18;80.02;101880.19;5073251;28;46108;-82
2022/02/23 00:38:25;;;;;;;;;4.00;2.00;;;;;11.32;79.84;101906.56;5075291;28;45935;-85
2022/02/23 00:40:50;;;;;;;;;3.00;1.50;;;;;11.29;80.00;101903.25;5075692;28;45605;-84
2022/02/23 00:43:15;;;;;;;;;1.75;1.00;;;;;11.32;79.72;101909.19;5078956;28;45551;-84
2022/02/23 00:45:41;;;;;;;;;3.00;2.25;;;;;11.25;79.92;101910.44;5081064;28;45677;-83
2022/02/23 00:48:06;;;;;;;;;2.00;2.00;;;;;11.25;79.97;101915.69;5080212;28;46129;-84
2022/02/23 00:50:32;;;;;;;;;5.00;3.00;;;;;11.22;79.79;101913.22;5080402;28;45493;-84
2022/02/23 00:52:57;;;;;;;;;4.00;3.00;;;;;11.10;79.99;101892.03;5075799;28;45702;-81
2022/02/23 00:55:23;;;;;;;;;3.25;1.00;;;;;11.17;79.90;101917.88;5075012;28;45550;-85
2022/02/23 00:57:48;;;;;;;;;1.00;1.00;;;;;11.14;80.11;101915.41;5075595;28;45603;-84
2022/02/23 01:00:14;;;;;;;;;6.50;2.00;;;;;11.12;79.93;101912.00;5075398;28;45511;-84
2022/02/23 01:06:01;;;;;;;;;2.00;1.25;;;;;11.04;80.00;101919.44;5074924;28;45735;-86
2022/02/23 01:08:27;;;;;;;;;2.00;2.00;;;;;11.02;80.01;101920.41;5073534;28;46189;-83
2022/02/23 01:10:52;;;;;;;;;4.00;2.50;;;;;10.97;80.16;101915.41;5074339;28;46109;-83
2022/02/23 01:13:18;;;;;;;;;5.50;3.00;;;;;10.81;80.22;101901.41;5056434;28;45573;-81
2022/02/23 01:15:44;;;;;;;;;1.50;1.50;;;;;10.90;80.33;101916.69;5074491;28;46240;-81
2022/02/23 01:21:31;;;;;;;;;3.00;1.00;;;;;10.71;80.28;101908.91;5080664;28;46129;-79
2022/02/23 01:23:57;;;;;;;;;3.50;2.00;;;;;10.80;80.45;101921.53;5080248;28;45594;-84
2022/02/23 01:26:22;;;;;;;;;2.25;2.25;;;;;10.73;80.43;101914.91;5079077;28;45544;-85
2022/02/23 01:28:48;;;;;;;;;5.75;1.00;;;;;10.78;80.70;101927.78;5076310;28;45698;-84
2022/02/23 01:31:13;;;;;;;;;3.50;2.25;;;;;10.75;80.70;101927.94;5077166;28;45625;-84
2022/02/23 01:33:39;;;;;;;;;4.00;3.00;;;;;10.68;80.90;101931.81;5076865;28;45779;-85
2022/02/23 01:36:05;;;;;;;;;3.00;2.00;;;;;10.68;80.92;101932.66;5075960;28;46363;-83
2022/02/23 01:38:30;;;;;;;;;6.00;2.00;;;;;10.63;80.69;101918.09;5076402;28;46325;-84
2022/02/23 01:40:56;;;;;;;;;4.00;2.00;;;;;10.64;80.84;101930.25;5076981;28;45888;-82
2022/02/23 01:43:22;;;;;;;;;3.25;2.25;;;;;10.51;80.75;101914.31;5077114;28;45640;-85
2022/02/23 01:45:49;;;;;;;;;3.75;2.00;;;;;10.62;80.98;101938.19;5077028;28;46592;-82
2022/02/23 01:51:37;;;;;;;;;3.50;2.00;;;;;10.59;80.95;101942.72;5076838;28;45678;-79
2022/02/23 01:54:03;;;;;;;;;7.25;2.75;;;;;10.50;80.98;101926.56;5077030;28;45659;-82
2022/02/23 01:56:28;;;;;;;;;6.00;3.00;;;;;10.52;80.97;101926.47;5077010;28;46440;-83
2022/02/23 01:58:53;;;;;;;;;3.50;2.00;;;;;10.56;80.60;101941.13;5076757;28;45909;-83
2022/02/23 02:01:19;;;;;;;;;4.50;3.00;;;;;10.55;80.91;101942.03;5077022;28;45653;-81
2022/02/23 02:03:46;;;;;;;;;7.75;4.50;;;;;10.52;80.98;101945.69;5076713;28;45582;-86
2022/02/23 02:06:12;;;;;;;;;3.00;2.25;;;;;10.42;80.80;101931.31;5076979;28;46442;-85
2022/02/23 02:08:37;;;;;;;;;4.50;3.25;;;;;10.48;80.85;101953.72;5077821;28;45792;-84
2022/02/23 02:11:03;;;;;;;;;4.00;3.00;;;;;10.28;80.79;101930.28;5077704;28;45622;-84
2022/02/23 02:13:28;;;;;;;;;4.50;3.00;;;;;10.39;80.91;101943.72;5077684;28;45499;-85
2022/02/23 02:15:53;;;;;;;;;3.00;1.25;;;;;10.42;80.96;101948.78;5077384;28;46613;-83
2022/02/23 02:21:53;;;;;;;;;3.00;2.50;;;;;10.38;80.92;101966.44;5085660;28;45665;-85
2022/02/23 02:24:24;;;;;;;;;4.00;3.50;;;;;10.36;80.83;101959.59;5086586;28;45766;-81
2022/02/23 02:26:49;;;;;;;;;3.25;2.25;;;;;10.21;80.84;101937.59;5086727;28;46513;-84
2022/02/23 02:29:15;;;;;;;;;3.50;2.50;;;;;10.27;80.96;101950.41;5090618;28;46367;-81
2022/02/23 02:31:41;;;;;;;;;4.00;2.00;;;;;10.31;80.75;101953.72;5090080;28;45450;-81
2022/02/23 02:34:07;;;;;;;;;2.00;2.00;;;;;10.24;80.91;101949.69;5072767;28;45167;-82
2022/02/23 02:36:32;;;;;;;;;5.00;3.75;;;;;10.19;80.93;101943.84;5091176;28;47088;-81
2022/02/23 02:38:58;;;;;;;;;3.00;1.75;;;;;10.14;81.22;101941.41;5087816;28;46463;-76
2022/02/23 02:41:23;;;;;;;;;6.50;3.50;;;;;10.12;81.18;101943.25;5088306;28;45745;-82
2022/02/23 02:43:49;;;;;;;;;2.00;2.00;;;;;10.04;81.00;101938.34;5091264;28;45355;-80
2022/02/23 02:46:14;;;;;;;;;6.00;3.50;;;;;10.09;81.09;101946.84;5092731;28;46984;-79
2022/02/23 02:52:03;;;;;;;;;7.50;3.00;;;;;10.05;80.87;101941.84;5092260;28;45550;-83
2022/02/23 02:54:29;;;;;;;;;4.50;2.75;;;;;10.09;80.98;101954.69;5093448;28;45555;-81
2022/02/23 02:56:55;;;;;;;;;3.00;2.00;;;;;10.09;81.13;101954.69;5103953;27;45384;-83
2022/02/23 02:59:20;;;;;;;;;5.50;4.00;;;;;10.04;81.08;101946.22;5104218;27;45118;-80
2022/02/23 03:01:45;;;;;;;;;3.75;3.00;;;;;10.01;80.96;101941.13;5103795;27;45487;-87
2022/02/23 03:04:11;;;;;;;;;3.00;2.25;;;;;10.02;81.16;101942.84;5102962;27;45206;-86
2022/02/23 03:06:36;;;;;;;;;3.25;3.00;;;;;10.04;80.85;101959.31;5082118;28;45757;-79
2022/02/23 03:09:04;;;;;;;;;2.00;2.00;;;;;9.90;81.22;101938.19;5078302;28;45761;-82
2022/02/23 03:11:31;;;;;;;;;2.75;2.75;;;;;10.01;81.15;101956.84;5079085;28;45917;-81
2022/02/23 03:13:56;;;;;;;;;6.50;2.25;;;;;10.02;80.81;101963.78;5083665;28;45575;-83
2022/02/23 03:16:22;;;;;;;;;6.25;2.75;;;;;10.02;80.89;101958.56;5086639;28;45559;-80
2022/02/23 03:22:09;;;;;;;;;7.00;2.00;;;;;9.89;80.75;101941.72;5078772;28;45781;-82
2022/02/23 03:24:34;;;;;;;;;4.00;2.75;;;;;9.99;81.03;101960.44;5076812;28;45649;-82
2022/02/23 03:27:00;;;;;;;;;3.25;2.75;;;;;9.97;80.83;101959.69;5075670;28;46822;-77
2022/02/23 03:29:26;;;;;;;;;2.75;2.00;;;;;9.98;80.76;101958.78;5057242;28;46211;-79
2022/02/23 03:31:52;;;;;;;;;6.25;3.00;;;;;9.93;80.75;101960.75;5080717;28;46001;-84
2022/02/23 03:34:17;;;;;;;;;2.00;1.50;;;;;9.90;81.03;101961.72;5077368;28;45757;-81
2022/02/23 03:36:42;;;;;;;;;2.00;2.00;;;;;9.89;81.18;101974.88;5075339;28;46398;-78
2022/02/23 03:39:08;;;;;;;;;5.00;2.00;;;;;9.86;81.03;101973.28;5075667;28;46116;-82
2022/02/23 03:41:33;;;;;;;;;6.75;3.50;;;;;9.83;81.33;101970.78;5073622;28;45718;-79
2022/02/23 03:43:58;;;;;;;;;3.75;2.00;;;;;9.73;80.96;101963.41;5074975;28;45772;-81
2022/02/23 03:46:24;;;;;;;;;4.25;2.00;;;;;9.80;81.19;101970.09;5073850;28;46676;-81
2022/02/23 03:48:49;;;;;;;;;6.00;3.00;;;;;9.79;81.19;101973.63;5076984;28;47102;-79
2022/02/23 03:51:15;;;;;;;;;2.00;2.00;;;;;9.66;81.18;101947.19;5077916;28;45872;-81
2022/02/23 03:53:41;;;;;;;;;5.75;2.50;;;;;9.62;81.12;101938.59;5077394;28;45881;-83
2022/02/23 03:56:38;;;;;;;;;4.00;2.00;;;;;9.74;81.23;101960.75;5078694;28;46795;-81
2022/02/23 03:58:52;;;;;;;;;2.25;2.00;;;;;9.68;81.24;101954.03;5078303;28;45978;-82
2022/02/23 04:01:18;;;;;;;;;7.00;3.00;;;;;9.73;81.27;101958.19;5078580;28;45758;-80
2022/02/23 04:03:43;;;;;;;;;3.25;3.00;;;;;9.68;81.14;101942.72;5078067;28;45736;-81
2022/02/23 04:06:08;;;;;;;;;6.25;4.25;;;;;9.76;80.96;101958.91;5076999;28;46724;-84
2022/02/23 04:08:34;;;;;;;;;4.50;3.00;;;;;9.78;81.07;101957.06;5077467;28;45593;-86
2022/02/23 04:10:59;;;;;;;;;6.75;3.00;;;;;9.79;81.09;101960.53;5077477;28;45638;-81
2022/02/23 04:13:24;;;;;;;;;3.00;2.00;;;;;9.79;81.26;101957.91;5076977;28;45890;-84
2022/02/23 04:15:50;;;;;;;;;8.00;3.00;;;;;9.78;81.38;101957.06;5075604;28;45850;-85
2022/02/23 04:18:15;;;;;;;;;2.00;2.00;;;;;9.78;80.75;101954.44;5076641;28;46489;-84
2022/02/23 04:20:41;;;;;;;;;3.75;3.00;;;;;9.79;80.94;101960.53;5058865;28;45675;-84
2022/02/23 04:23:06;;;;;;;;;5.50;2.00;;;;;9.69;81.12;101945.25;5077092;28;45783;-85
2022/02/23 04:25:31;;;;;;;;;4.25;3.00;;;;;9.74;80.93;101950.28;5077079;28;46325;-85
2022/02/23 04:27:57;;;;;;;;;5.50;2.50;;;;;9.77;81.01;101947.50;5077122;28;46158;-85
2022/02/23 04:30:22;;;;;;;;;3.00;3.00;;;;;9.78;80.80;101953.59;5079826;28;45433;-82
2022/02/23 04:32:47;;;;;;;;;3.00;2.25;;;;;9.73;80.84;101951.19;5082724;28;45621;-84
2022/02/23 04:35:13;;;;;;;;;3.00;3.00;;;;;9.76;80.68;101944.97;5083022;28;46358;-81
2022/02/23 04:37:38;;;;;;;;;6.50;4.00;;;;;9.71;80.94;101946.97;5081635;28;45615;-82
2022/02/23 04:40:05;;;;;;;;;5.75;1.25;;;;;9.73;80.72;101958.19;5086179;28;45601;-86
2022/02/23 04:42:31;;;;;;;;;2.00;1.25;;;;;9.68;81.03;101954.03;5085208;28;45728;-81
2022/02/23 04:45:00;;;;;;;;;7.00;3.00;;;;;9.67;81.00;101960.16;5074562;28;47394;-83
2022/02/23 04:47:26;;;;;;;;;5.25;3.50;;;;;9.65;80.84;101953.31;5094070;28;45653;-80
2022/02/23 04:49:51;;;;;;;;;4.75;3.00;;;;;9.63;81.12;101953.38;5097786;28;45809;-84
2022/02/23 04:52:17;;;;;;;;;3.75;2.00;;;;;9.53;80.96;101944.25;5097680;28;45071;-84
2022/02/23 04:54:42;;;;;;;;;4.00;2.25;;;;;9.62;80.94;101969.16;5096419;28;45562;-84
2022/02/23 04:57:08;;;;;;;;;3.00;2.00;;;;;9.52;81.11;101947.78;5080500;28;46006;-84
2022/02/23 04:59:34;;;;;;;;;8.25;3.75;;;;;9.55;81.12;101952.91;5078363;28;45885;-82
2022/02/23 05:01:59;;;;;;;;;3.25;1.25;;;;;9.54;81.20;101951.19;5079002;28;45736;-85
2022/02/23 05:07:46;;;;;;;;;3.00;2.75;;;;;9.59;80.99;101970.16;5077329;28;45959;-81
2022/02/23 05:10:11;;;;;;;;;7.00;3.00;;;;;9.50;81.06;101949.59;5079588;28;46086;-83
2022/02/23 05:12:37;;;;;;;;;6.00;2.50;;;;;9.52;81.24;101957.41;5079735;28;45784;-81
2022/02/23 05:15:03;;;;;;;;;6.50;3.50;;;;;9.51;81.08;101953.94;5079288;28;46424;-81
2022/02/23 05:17:28;;;;;;;;;4.00;2.00;;;;;9.48;81.18;101941.00;5077684;28;47181;-86
2022/02/23 05:19:53;;;;;;;;;5.75;2.50;;;;;9.54;81.11;101955.56;5078517;28;45617;-84
2022/02/23 05:22:19;;;;;;;;;6.00;3.50;;;;;9.48;81.17;101942.78;5077591;28;45483;-85
2022/02/23 05:24:44;;;;;;;;;2.75;2.00;;;;;9.49;81.39;101950.56;5078292;28;47268;-84
2022/02/23 05:27:10;;;;;;;;;5.50;3.00;;;;;9.47;81.19;101943.69;5077256;28;46395;-76
2022/02/23 05:29:35;;;;;;;;;3.25;3.00;;;;;9.53;81.26;101959.09;5082477;28;45693;-82
2022/02/23 05:32:01;;;;;;;;;6.50;2.75;;;;;9.52;81.04;101960.00;5084151;28;45745;-85
2022/02/23 05:37:48;;;;;;;;;2.50;2.00;;;;;9.41;80.99;101962.25;5081589;28;45566;-86
2022/02/23 05:40:15;;;;;;;;;5.75;4.00;;;;;9.51;80.98;101974.84;5082231;28;45471;-85
2022/02/23 05:42:40;;;;;;;;;7.25;3.75;;;;;9.50;81.14;101978.38;5080940;28;45444;-84
2022/02/23 05:45:06;;;;;;;;;7.25;5.00;;;;;9.47;81.08;101975.94;5079680;28;45583;-83
2022/02/23 05:47:32;;;;;;;;;6.00;3.00;;;;;9.49;81.02;101973.25;5061764;28;47322;-80
2022/02/23 05:53:19;;;;;;;;;3.00;2.00;;;;;9.44;81.24;101975.22;5077729;28;45718;-86
2022/02/23 05:55:45;;;;;;;;;2.50;2.50;;;;;9.36;81.18;101959.84;5077919;28;46074;-81
2022/02/23 05:58:10;;;;;;;;;5.75;5.00;;;;;9.45;81.35;101982.97;5077859;28;45631;-85
2022/02/23 06:00:35;;;;;;;;;6.00;3.00;;;;;9.44;80.80;101988.31;5058980;28;45629;-86
2022/02/23 06:03:01;;;;;;;;;3.00;2.25;;;;;9.40;81.06;101974.47;5058909;28;46234;-84
2022/02/23 06:05:26;;;;;;;;;4.25;3.00;;;;;9.43;81.18;101983.97;5076934;28;45688;-86
2022/02/23 06:07:51;;;;;;;;;4.00;2.75;;;;;9.39;81.21;101978.03;5077136;28;45745;-83
2022/02/23 06:10:17;;;;;;;;;4.75;2.75;;;;;9.44;81.13;101988.31;5077488;28;45668;-84
2022/02/23 06:12:42;;;;;;;;;7.50;5.00;;;;;9.43;81.30;101987.44;5078028;28;45596;-85
2022/02/23 06:15:09;;;;;;;;;5.00;5.00;;;;;9.43;81.03;101987.44;5077197;28;46766;-86
2022/02/23 06:17:34;;;;;;;;;8.50;4.00;;;;;9.43;81.21;101984.84;5077771;28;46092;-85
2022/02/23 06:23:22;;;;;;;;;5.50;3.50;;;;;9.42;81.01;101987.50;5077218;28;45677;-85
2022/02/23 06:25:49;;;;;;;;;5.00;3.75;;;;;9.42;81.23;101988.34;5077378;28;45612;-86
2022/02/23 06:28:15;;;;;;;;;4.75;3.00;;;;;9.38;81.40;101980.72;5077393;28;45612;-84
2022/02/23 06:30:42;;;;;;;;;7.00;5.00;;;;;9.42;81.09;102001.44;5077667;28;45770;-83
2022/02/23 06:33:08;;;;;;;;;7.75;5.25;;;;;9.41;81.39;101996.25;5059210;28;45763;-84
2022/02/23 06:35:33;;;;;;;;;5.50;3.50;;;;;9.25;81.16;101981.25;5077646;28;46609;-85
2022/02/23 06:37:58;;;;;;;;;4.00;3.75;;;;;9.34;81.31;101990.44;5078930;28;45515;-85
2022/02/23 06:40:24;;;;;;;;;8.00;5.50;;;;;9.38;81.19;102007.72;5079472;28;45641;-78
2022/02/23 06:42:49;;;;;;;;;7.25;6.00;;;;;9.37;81.27;102010.41;5078349;28;45821;-80
2022/02/23 06:45:15;;;;;;;;;11.25;6.75;;;;;9.35;81.29;102012.22;5076602;28;46393;-79
2022/02/23 06:47:40;;;;;;;;;7.75;6.00;;;;;9.32;81.13;102013.22;5076501;28;46320;-79
2022/02/23 06:53:28;;;;;;;;;7.50;7.00;;;;;9.26;80.94;102030.03;5075165;28;45516;-81
2022/02/23 06:55:53;;;;;;;;;7.25;3.00;;;;;9.23;81.28;102030.13;5076892;28;45936;-86
2022/02/23 06:58:19;;;;;;;;;8.25;6.00;;;;;9.03;81.21;101996.16;5077283;28;46118;-82
2022/02/23 07:00:46;;;;;;;;;10.25;6.00;;;;;9.14;81.37;102019.22;5077842;28;45834;-82
2022/02/23 07:03:11;;;;;;;;;7.00;5.00;;;;;9.19;81.19;102027.72;5083150;28;45878;-85
2022/02/23 07:05:37;;;;;;;;;10.00;6.50;;;;;9.17;81.20;102027.81;5085750;28;46499;-85
2022/02/23 07:08:05;;;;;;;;;12.50;6.00;;;;;9.17;81.13;102024.34;5084916;28;45650;-81
2022/02/23 07:10:32;;;;;;;;;7.25;6.00;;;;;9.16;81.12;102031.34;5080852;28;45641;-83
2022/02/23 07:13:00;;;;;;;;;6.75;5.00;;;;;9.03;80.94;102008.38;5079582;28;45520;-84
2022/02/23 07:15:26;;;;;;;;;7.75;5.75;;;;;9.12;81.01;102032.34;5058669;28;47467;-78
2022/02/23 07:17:51;;;;;;;;;6.00;5.00;;;;;9.11;81.05;102030.69;5074481;28;45736;-82
2022/02/23 07:23:39;;;;;;;;;9.75;6.50;;;;;9.07;81.15;102036.94;5074444;28;45755;-80
2022/02/23 07:26:05;;;;;;;;;6.00;6.00;;;;;8.81;81.21;101990.97;5074155;28;45727;-80
2022/02/23 07:28:31;;;;;;;;;9.50;7.00;;;;;9.03;81.14;102022.28;5074831;28;45975;-81
2022/02/23 07:30:57;;;;;;;;;11.25;7.25;;;;;9.03;80.98;102032.75;5074661;28;45848;-80
2022/02/23 07:33:22;;;;;;;;;9.75;8.50;;;;;9.00;81.06;102019.81;5074417;28;45590;-80
2022/02/23 07:39:09;;;;;;;;;7.00;5.00;;;;;9.14;80.91;102042.75;5070004;28;45861;-83
2022/02/23 07:41:35;;;;;;;;;10.75;6.00;;;;;9.11;81.00;102038.53;5072323;28;45562;-85
2022/02/23 07:44:01;;;;;;;;;5.75;2.75;;;;;9.15;80.76;102041.84;5074325;28;45576;-82
2022/02/23 07:46:28;;;;;;;;;11.00;10.00;;;;;9.16;80.97;102052.25;5074722;28;46280;-84
2022/02/23 07:49:00;;;;;;;;;11.50;10.00;;;;;8.94;80.89;102017.47;5072778;28;46493;-83
2022/02/23 07:51:27;;;;;;;;;11.50;10.00;;;;;8.97;81.00;102013.84;5073937;28;45897;-83
2022/02/23 07:53:54;;;;;;;;;10.75;10.25;;;;;9.22;80.79;102048.53;5074195;28;45766;-80
2022/02/23 07:56:21;;;;;;;;;9.50;7.25;;;;;9.23;80.55;102050.22;5056347;28;48558;-85
2022/02/23 07:58:47;;;;;;;;;15.00;8.00;;;;;9.22;80.71;102049.38;5039124;28;47286;-83
2022/02/23 08:01:29;;;;;;;;;9.50;8.50;;;;;9.21;80.78;102049.44;5074225;28;45765;-85
2022/02/23 08:03:56;;;;;;;;;13.00;10.00;;;;;9.10;80.77;102020.28;5074248;28;45785;-84
2022/02/23 08:06:21;;;;;;;;;16.00;14.75;;;;;9.19;81.04;102048.63;5074485;28;45819;-83
2022/02/23 08:08:46;;;;;;;;;14.75;10.50;;;;;9.09;80.71;102049.94;5055686;28;46843;-84
2022/02/23 08:11:12;;;;;;;;;16.00;11.25;;;;;9.11;80.74;102059.44;5055868;28;45589;-83
2022/02/23 08:13:38;;;;;;;;;19.25;12.00;;;;;8.81;80.60;102011.03;5072795;28;45822;-83
2022/02/23 08:21:32;;;;;;;;;13.75;12.00;;;;;8.88;80.87;102022.94;5073477;28;45602;-83
2022/02/23 08:23:57;;;;;;;;;13.75;12.00;;;;;8.87;80.66;102017.75;5073247;28;46073;-83
2022/02/23 08:26:25;;;;;;;;;11.25;10.00;;;;;8.96;81.15;102036.53;5075295;28;45720;-88
2022/02/23 08:28:51;;;;;;;;;20.50;16.25;;;;;9.03;80.65;102045.81;5074447;28;46278;-83
2022/02/23 08:31:16;;;;;;;;;16.75;12.00;;;;;9.11;80.90;102054.22;5076056;28;45945;-83
2022/02/23 08:33:43;;;;;;;;;20.50;12.00;;;;;9.13;80.81;102060.19;5074942;28;45913;-80
2022/02/23 08:39:33;;;;;;;;;20.75;16.00;;;;;9.12;80.90;102048.03;5072994;28;45679;-82
2022/02/23 08:41:59;;;;;;;;;16.50;14.50;;;;;9.11;80.59;102043.75;5054921;28;45780;-83
2022/02/23 08:44:24;;;;;;;;;17.25;14.25;;;;;9.18;80.60;102055.63;5055170;28;45891;-82
2022/02/23 08:46:50;;;;;;;;;16.00;14.00;;;;;9.29;80.43;102073.47;5073571;28;45677;-83
2022/02/23 08:49:16;;;;;;;;;23.00;18.00;;;;;9.21;80.28;102049.44;5076171;28;47175;-84
2022/02/23 08:51:44;;;;;;;;;17.50;15.00;;;;;9.26;80.59;102057.94;5073872;28;45611;-84
2022/02/23 08:54:10;;;;;;;;;16.00;13.00;;;;;9.26;80.40;102056.16;5073943;28;45674;-81
2022/02/23 08:56:37;;;;;;;;;20.75;18.75;;;;;9.39;80.54;102072.19;5054764;28;47550;-82
2022/02/23 08:59:03;;;;;;;;;23.25;17.25;;;;;9.29;80.29;102044.72;5054422;28;47455;-82
2022/02/23 09:01:32;;;;;;;;;13.50;11.50;;;;;9.47;80.54;102064.88;5072833;28;45822;-81
2022/02/23 09:03:57;;;;;;;;;14.75;13.25;;;;;9.52;80.67;102057.66;5073188;28;45557;-83
2022/02/23 09:09:44;;;;;;;;;13.00;12.25;;;;;9.18;80.12;101971.09;5074104;28;45865;-81
2022/02/23 09:12:11;;;;;;;;;21.75;16.50;;;;;9.59;80.23;102030.31;5074133;28;45593;-81
2022/02/23 09:14:36;;;;;;;;;16.00;12.00;;;;;9.67;80.59;102043.91;5074189;28;45700;-81
2022/02/23 09:17:02;;;;;;;;;20.75;13.00;;;;;9.81;80.71;102043.31;5074290;28;46374;-84
2022/02/23 09:19:31;;;;;;;;;16.50;12.00;;;;;9.59;80.37;101998.06;5074225;28;46247;-83
2022/02/23 09:21:56;;;;;;;;;18.50;16.50;;;;;9.89;80.33;102045.56;5074177;28;45555;-82
2022/02/23 09:24:23;;;;;;;;;13.00;12.50;;;;;9.91;80.31;102038.50;5075069;28;45851;-83
2022/02/23 09:26:48;;;;;;;;;19.00;13.00;;;;;9.84;80.18;102009.13;5056295;28;46295;-82
2022/02/23 09:29:14;;;;;;;;;17.25;15.00;;;;;9.80;79.96;101999.72;5056478;28;47121;-84
2022/02/23 09:31:39;;;;;;;;;17.00;14.00;;;;;9.99;79.83;102003.19;5055450;28;45643;-82
2022/02/23 09:34:05;;;;;;;;;17.25;15.00;;;;;10.19;79.87;102027.66;5074161;28;45601;-81
2022/02/23 09:39:52;;;;;;;;;17.00;13.50;;;;;10.21;79.49;102004.84;5074831;28;46078;-82
2022/02/23 09:42:19;;;;;;;;;12.75;11.00;;;;;10.39;79.65;102024.94;5060347;28;45841;-82
2022/02/23 09:44:44;;;;;;;;;13.50;10.75;;;;;10.21;79.20;101976.03;5080936;28;45583;-83
2022/02/23 09:47:10;;;;;;;;;9.25;8.25;;;;;10.59;79.25;102029.19;5080796;28;45663;-84
2022/02/23 09:49:36;;;;;;;;;12.00;11.00;;;;;10.66;79.16;102020.13;5080709;28;46264;-83
2022/02/23 09:52:04;;;;;;;;;13.50;8.00;;;;;10.73;79.03;102027.63;5061414;28;45720;-84
2022/02/23 09:54:33;;;;;;;;;12.00;8.50;;;;;10.65;78.79;101998.31;5058941;28;45782;-83
2022/02/23 09:56:59;;;;;;;;;8.00;6.25;;;;;10.87;78.67;102016.44;5074987;28;47075;-82
2022/02/23 09:59:25;;;;;;;;;9.00;8.00;;;;;10.71;78.49;101970.94;5058516;28;47349;-82
2022/02/23 10:01:53;;;;;;;;;10.00;7.00;;;;;10.87;78.30;101985.00;5076085;28;45781;-82
2022/02/23 10:04:22;;;;;;;;;9.00;6.75;;;;;10.77;77.99;101971.50;5076577;28;45443;-83
2022/02/23 10:10:10;;;;;;;;;8.50;6.50;;;;;11.05;77.16;101985.84;5075325;28;45616;-83
2022/02/23 10:12:37;;;;;;;;;7.25;5.50;;;;;11.19;77.24;101997.31;5057753;28;45841;-83
2022/02/23 10:15:07;;;;;;;;;4.00;4.00;;;;;11.27;77.48;101999.56;5058242;28;45890;-82
2022/02/23 10:18:05;;;;;;;;;5.25;4.00;;;;;11.39;77.30;101995.47;5076631;28;46760;-82
2022/02/23 10:20:34;;;;;;;;;12.25;8.50;;;;;11.36;77.11;101978.94;5075931;28;46299;-82
2022/02/23 10:23:23;;;;;;;;;4.00;3.25;;;;;11.58;76.95;101996.16;5059071;28;45598;-82
2022/02/23 10:26:05;;;;;;;;;10.25;7.50;;;;;11.68;76.47;101997.38;5076967;28;45659;-83
2022/02/23 10:28:32;;;;;;;;;6.50;6.50;;;;;11.75;76.59;101990.91;5076398;28;45801;-81
2022/02/23 10:31:15;;;;;;;;;11.00;7.25;;;;;11.81;76.33;102003.72;5075858;28;46038;-81
2022/02/23 10:33:42;;;;;;;;;8.75;4.00;;;;;11.85;75.90;101992.09;5075926;28;45799;-82
2022/02/23 10:36:16;;;;;;;;;5.25;4.00;;;;;11.81;75.08;101982.72;5077054;28;45553;-80
2022/02/23 10:38:46;;;;;;;;;4.75;4.25;;;;;11.97;75.08;101991.44;5057240;28;47992;-81
2022/02/23 10:41:32;;;;;;;;;5.50;2.00;;;;;11.94;75.01;101981.09;5059663;28;47033;-83
2022/02/23 10:43:58;;;;;;;;;8.00;5.75;;;;;12.05;75.35;101980.50;5081830;28;45729;-83
2022/02/23 10:46:24;;;;;;;;;5.00;4.00;;;;;12.16;74.47;101991.25;5061909;28;45604;-83
2022/02/23 10:48:59;;;;;;;;;5.00;3.50;;;;;11.97;73.43;101945.94;5079829;28;45649;-82
2022/02/23 10:51:32;;;;;;;;;4.25;3.50;;;;;12.25;72.03;101979.41;5075138;28;45717;-83
2022/02/23 10:54:12;;;;;;;;;4.25;2.25;;;;;12.24;72.23;101978.56;5075946;28;45769;-82
2022/02/23 10:56:40;;;;;;;;;4.75;2.25;;;;;12.15;72.20;101950.16;5076542;28;45608;-81
2022/02/23 10:59:19;;;;;;;;;5.00;2.50;;;;;12.31;71.19;101977.25;5059159;28;47436;-84
2022/02/23 11:01:48;;;;;;;;;6.00;3.00;;;;;11.99;71.70;101912.53;5078617;28;45493;-83
2022/02/23 11:04:15;;;;;;;;;7.00;3.50;;;;;12.34;71.72;101969.22;5077739;28;45678;-81
2022/02/23 11:06:42;;;;;;;;;3.75;2.75;;;;;12.37;71.04;101969.03;5077598;28;45501;-81
2022/02/23 11:09:11;;;;;;;;;1.50;1.00;;;;;12.23;69.93;101942.69;5077764;28;47522;-82
2022/02/23 11:11:37;;;;;;;;;4.00;3.00;;;;;12.32;69.35;101959.72;5076680;28;46265;-82
2022/02/23 11:14:07;;;;;;;;;1.50;1.00;;;;;12.35;69.66;101955.16;5075773;28;45721;-82
2022/02/23 11:16:32;;;;;;;;;1.00;1.00;;;;;12.41;69.71;101969.72;5076079;28;45738;-82
2022/02/23 11:19:00;;;;;;;;;2.00;1.25;;;;;12.42;69.44;101963.50;5076074;28;45645;-81
2022/02/23 11:21:29;;;;;;;;;1.00;0.75;;;;;12.29;68.56;101937.09;5076014;28;46166;-81
2022/02/23 11:24:09;;;;;;;;;1.00;1.00;;;;;12.48;67.29;101956.13;5075899;28;45626;-82
2022/02/23 11:26:37;;;;;;;;;2.00;1.00;;;;;12.52;66.63;101960.25;5076151;28;45565;-82
2022/02/23 11:29:16;;;;;;;;;1.50;1.00;;;;;12.55;66.52;101952.22;5076168;28;45766;-84
2022/02/23 11:31:41;;;;;;;;;2.00;1.00;;;;;12.60;67.34;101950.16;5060544;28;47588;-81
2022/02/23 11:34:08;;;;;;;;;2.00;0.00;;;;;12.67;67.10;101942.78;5061858;28;46077;-83
2022/02/23 11:36:42;;;;;;;;;2.00;1.00;;;;;12.44;67.19;101881.03;5060207;28;45984;-80
2022/02/23 11:39:20;;;;;;;;;1.00;1.00;;;;;12.83;65.88;101926.94;5079045;28;46852;-82
2022/02/23 11:41:55;;;;;;;;;2.00;1.00;;;;;12.91;66.05;101932.56;5058908;28;46344;-85
2022/02/23 11:44:29;;;;;;;;;3.00;1.00;;;;;12.97;65.95;101911.16;5076864;28;45756;-83
2022/02/23 11:47:17;;;;;;;;;2.25;1.00;;;;;12.87;65.64;101874.06;5076443;28;45562;-83
2022/02/23 11:49:57;;;;;;;;;2.00;1.00;;;;;12.91;65.38;101870.28;5075062;28;46474;-84
2022/02/23 11:52:27;;;;;;;;;2.00;2.00;;;;;12.98;65.65;101870.78;5075125;28;46561;-83
2022/02/23 11:54:58;;;;;;;;;1.50;1.00;;;;;13.21;65.51;101906.25;5075903;28;45677;-85
2022/02/23 11:57:49;;;;;;;;;1.00;0.75;;;;;13.27;65.78;101892.72;5078177;28;45589;-84
2022/02/23 12:00:32;;;;;;;;;3.00;2.00;;;;;13.17;66.25;101860.84;5057662;28;47905;-82
2022/02/23 12:03:08;;;;;;;;;1.25;1.25;;;;;13.36;65.37;101878.97;5055983;28;48402;-83
2022/02/23 12:05:44;;;;;;;;;1.75;1.00;;;;;13.45;63.96;101886.28;5076094;28;45712;-82
2022/02/23 12:08:43;;;;;;;;;2.00;1.00;;;;;13.49;64.92;101874.66;5057088;28;45564;-83
2022/02/23 12:11:17;;;;;;;;;1.75;1.50;;;;;13.52;64.21;101868.31;4973061;28;48519;-82
2022/02/23 12:13:45;;;;;;;;;1.00;1.00;;;;;13.24;64.26;101824.47;4973518;28;45624;-83
2022/02/23 12:16:41;;;;;;;;;1.75;0.75;;;;;13.55;63.08;101866.34;4972584;28;46219;-89
2022/02/23 12:19:09;;;;;;;;;2.25;0.75;;;;;13.33;64.15;101834.44;4978363;28;45540;-86
2022/02/23 12:24:56;;;;;;;;;1.00;0.00;;;;;13.20;61.46;101815.06;4978837;28;45355;-85
2022/02/23 12:27:28;;;;;;;;;1.50;0.00;;;;;13.08;61.09;101806.13;4959099;28;45570;-84
2022/02/23 12:29:54;;;;;;;;;0.75;0.00;;;;;13.00;61.22;101782.94;4974050;28;45882;-86
2022/02/23 12:32:25;;;;;;;;;0.00;0.00;;;;;13.40;61.03;101848.88;4974794;28;48693;-88
2022/02/23 12:34:58;;;;;;;;;0.00;0.00;;;;;13.15;60.54;101810.09;4974949;28;47002;-86
2022/02/23 12:40:45;;;;;;;;;1.00;0.00;;;;;13.39;60.35;101829.59;4973541;28;45955;-85
2022/02/23 12:43:11;;;;;;;;;0.75;0.00;;;;;13.31;60.48;101820.50;4973428;28;47306;-85